createdAt,value
2019-04-20T00:01:28.063Z,6.70
2019-04-20T00:03:55.583Z,6.60
2019-04-20T00:06:27.105Z,6.60
2019-04-20T00:09:04.982Z,6.40
2019-04-20T00:11:41.472Z,6.40
2019-04-20T00:14:07.064Z,6.40
2019-04-20T00:16:33.995Z,6.40
2019-04-20T00:19:05.454Z,6.30
2019-04-20T00:21:47.335Z,6.20
2019-04-20T00:24:23.424Z,6.20
2019-04-20T00:27:13.716Z,6.10
2019-04-20T00:29:40.494Z,5.90
2019-04-20T00:32:02.493Z,5.90
2019-04-20T00:34:31.601Z,5.90
2019-04-20T00:36:58.037Z,5.80
2019-04-20T00:39:28.338Z,5.70
2019-04-20T00:42:03.499Z,5.70
2019-04-20T00:44:36.007Z,5.70
2019-04-20T00:47:15.974Z,5.60
2019-04-20T00:49:48.276Z,5.70
2019-04-20T00:54:39.156Z,5.50
2019-04-20T00:57:20.394Z,5.40
2019-04-20T00:59:59.113Z,5.40
2019-04-20T01:02:25.816Z,5.40
2019-04-20T01:05:04.174Z,5.40
2019-04-20T01:07:34.712Z,5.40
2019-04-20T01:10:04.962Z,5.40
2019-04-20T01:12:38.785Z,5.40
2019-04-20T01:15:11.804Z,5.30
2019-04-20T01:17:41.755Z,5.20
2019-04-20T01:20:13.185Z,5.10
2019-04-20T01:22:51.474Z,5.20
2019-04-20T01:25:22.165Z,5.10
2019-04-20T01:28:06.751Z,5.00
2019-04-20T01:30:28.207Z,4.80
2019-04-20T01:33:03.495Z,4.80
2019-04-20T01:35:40.932Z,4.70
2019-04-20T01:38:12.390Z,4.70
2019-04-20T01:40:27.864Z,4.80
2019-04-20T01:42:59.419Z,4.80
2019-04-20T01:45:35.516Z,4.80
2019-04-20T01:48:03.013Z,4.70
2019-04-20T01:50:37.943Z,4.70
2019-04-20T01:53:16.471Z,4.70
2019-04-20T01:55:51.104Z,4.80
2019-04-20T01:58:36.396Z,4.80
2019-04-20T02:01:18.698Z,4.70
2019-04-20T02:04:00.336Z,4.70
2019-04-20T02:06:41.861Z,4.70
2019-04-20T02:09:11.913Z,4.70
2019-04-20T02:11:42.612Z,4.60
2019-04-20T02:14:11.956Z,4.60
2019-04-20T02:16:47.400Z,4.60
2019-04-20T02:19:26.649Z,4.60
2019-04-20T02:21:59.307Z,4.50
2019-04-20T02:24:17.874Z,4.50
2019-04-20T02:26:50.066Z,4.50
2019-04-20T02:29:43.053Z,4.50
2019-04-20T02:32:24.024Z,4.40
2019-04-20T02:40:39.773Z,4.40
2019-04-20T02:43:09.595Z,4.30
2019-04-20T02:50:44.107Z,4.20
2019-04-20T02:55:48.439Z,4.00
2019-04-20T02:58:18.696Z,4.00
2019-04-20T03:00:44.458Z,4.00
2019-04-20T03:03:03.238Z,4.00
2019-04-20T03:05:33.163Z,3.90
2019-04-20T03:08:08.953Z,3.90
2019-04-20T03:10:53.530Z,3.90
2019-04-20T03:13:18.321Z,3.90
2019-04-20T03:15:51.833Z,3.90
2019-04-20T03:18:23.119Z,3.80
2019-04-20T03:20:53.058Z,3.70
2019-04-20T03:23:30.046Z,3.70
2019-04-20T03:26:07.785Z,3.70
2019-04-20T03:28:51.106Z,3.60
2019-04-20T03:31:41.035Z,3.60
2019-04-20T03:34:41.679Z,3.60
2019-04-20T03:36:34.899Z,3.60
2019-04-20T03:38:57.339Z,3.60
2019-04-20T03:41:22.656Z,3.50
2019-04-20T03:43:45.600Z,3.60
2019-04-20T03:46:19.269Z,3.60
2019-04-20T03:49:04.510Z,3.60
2019-04-20T03:51:39.814Z,3.60
2019-04-20T03:54:16.955Z,3.60
2019-04-20T03:57:22.403Z,3.60
2019-04-20T04:00:01.805Z,3.50
2019-04-20T04:02:57.585Z,3.50
2019-04-20T04:05:23.585Z,3.60
2019-04-20T04:07:45.558Z,3.70
2019-04-20T04:10:24.944Z,3.80
2019-04-20T04:13:09.534Z,3.80
2019-04-20T04:15:44.770Z,3.90
2019-04-20T04:18:21.880Z,3.80
2019-04-20T04:20:56.565Z,3.80
2019-04-20T04:23:38.061Z,3.80
2019-04-20T04:26:08.624Z,3.80
2019-04-20T04:28:40.898Z,3.80
2019-04-20T04:31:11.910Z,3.90
2019-04-20T04:36:13.548Z,4.10
2019-04-20T04:38:54.640Z,4.10
2019-04-20T04:41:24.294Z,4.30
2019-04-20T04:44:00.640Z,4.40
2019-04-20T04:46:05.813Z,4.60
2019-04-20T04:48:41.100Z,4.70
2019-04-20T04:51:16.757Z,4.80
2019-04-20T04:53:51.108Z,4.90
2019-04-20T04:56:16.303Z,5.00
2019-04-20T04:58:44.610Z,5.20
2019-04-20T05:01:21.694Z,5.30
2019-04-20T05:04:19.093Z,5.40
2019-04-20T05:06:34.368Z,5.50
2019-04-20T05:09:00.214Z,5.80
2019-04-20T05:11:27.822Z,5.90
2019-04-20T05:14:03.599Z,6.20
2019-04-20T05:16:52.042Z,6.40
2019-04-20T05:19:23.436Z,6.50
2019-04-20T05:22:08.215Z,6.70
2019-04-20T05:24:48.449Z,6.80
2019-04-20T05:27:34.821Z,7.00
2019-04-20T05:29:44.775Z,7.00
2019-04-20T05:32:23.540Z,7.10
2019-04-20T05:35:12.062Z,7.20
2019-04-20T05:37:41.935Z,7.50
2019-04-20T05:40:20.576Z,7.60
2019-04-20T05:42:54.485Z,7.70
2019-04-20T05:45:22.010Z,7.90
2019-04-20T05:47:55.123Z,7.90
2019-04-20T05:50:28.920Z,8.20
2019-04-20T05:53:01.697Z,8.20
2019-04-20T05:55:35.961Z,8.40
2019-04-20T05:58:10.045Z,8.50
2019-04-20T06:00:40.577Z,8.60
2019-04-20T06:03:09.499Z,8.80
2019-04-20T06:05:45.881Z,8.80
2019-04-20T06:08:15.663Z,9.00
2019-04-20T06:10:45.580Z,9.00
2019-04-20T06:13:27.751Z,9.10
2019-04-20T06:16:38.360Z,9.20
2019-04-20T06:19:10.220Z,9.50
2019-04-20T06:21:41.736Z,9.30
2019-04-20T06:24:20.685Z,9.40
2019-04-20T06:26:53.662Z,9.40
2019-04-20T06:29:19.376Z,9.50
2019-04-20T06:31:53.482Z,9.80
2019-04-20T06:36:58.381Z,10.10
2019-04-20T06:39:40.654Z,10.40
2019-04-20T06:42:09.869Z,10.70
2019-04-20T06:44:50.851Z,10.60
2019-04-20T06:49:37.999Z,11.20
2019-04-20T06:52:32.575Z,11.40
2019-04-20T06:55:14.169Z,11.80
2019-04-20T06:57:50.763Z,12.00
2019-04-20T07:00:18.235Z,12.10
2019-04-20T07:03:04.750Z,12.20
2019-04-20T07:05:35.925Z,12.50
2019-04-20T07:08:06.985Z,12.80
2019-04-20T07:10:34.486Z,12.70
2019-04-20T07:12:55.287Z,12.90
2019-04-20T07:15:36.561Z,13.20
2019-04-20T07:18:18.638Z,13.30
2019-04-20T07:23:35.534Z,13.20
2019-04-20T07:26:06.648Z,13.20
2019-04-20T07:28:35.512Z,13.30
2019-04-20T07:31:03.739Z,13.70
2019-04-20T07:33:34.915Z,14.00
2019-04-20T07:36:05.925Z,14.50
2019-04-20T07:38:40.496Z,14.90
2019-04-20T07:41:08.954Z,15.90
2019-04-20T07:43:54.111Z,15.40
2019-04-20T07:46:21.901Z,15.20
2019-04-20T07:48:45.543Z,15.50
2019-04-20T07:51:06.886Z,15.60
2019-04-20T07:53:43.053Z,15.60
2019-04-20T07:56:25.606Z,15.20
2019-04-20T07:58:44.141Z,15.40
2019-04-20T08:01:45.426Z,15.30
2019-04-20T08:04:13.628Z,15.40
2019-04-20T08:06:42.168Z,15.00
2019-04-20T08:09:19.621Z,15.10
2019-04-20T08:12:04.883Z,15.40
2019-04-20T08:14:35.771Z,15.50
2019-04-20T08:17:14.214Z,15.50
2019-04-20T08:19:34.923Z,15.30
2019-04-20T08:22:09.494Z,15.40
2019-04-20T08:24:37.171Z,15.40
2019-04-20T08:27:00.329Z,15.60
2019-04-20T08:29:45.116Z,15.30
2019-04-20T08:32:56.696Z,15.70
2019-04-20T08:35:32.100Z,15.50
2019-04-20T08:38:35.013Z,15.50
2019-04-20T08:40:37.276Z,15.50
2019-04-20T08:43:20.101Z,16.00
2019-04-20T08:45:49.029Z,16.20
2019-04-20T08:48:18.918Z,16.70
2019-04-20T08:50:47.068Z,16.40
2019-04-20T08:55:45.051Z,17.00
2019-04-20T08:58:02.418Z,17.80
2019-04-20T09:00:39.652Z,18.00
2019-04-20T09:03:15.364Z,18.20
2019-04-20T09:05:50.000Z,18.30
2019-04-20T09:08:16.251Z,18.30
2019-04-20T09:11:01.505Z,18.60
2019-04-20T09:13:21.269Z,19.00
2019-04-20T09:15:44.718Z,19.30
2019-04-20T09:18:31.283Z,19.20
2019-04-20T09:21:01.535Z,19.20
2019-04-20T09:23:45.863Z,19.60
2019-04-20T09:26:24.692Z,20.00
2019-04-20T09:28:59.024Z,19.80
2019-04-20T09:31:35.806Z,19.60
2019-04-20T09:34:39.576Z,18.60
2019-04-20T09:37:29.616Z,18.10
2019-04-20T09:40:21.574Z,18.50
2019-04-20T09:43:06.550Z,18.60
2019-04-20T09:45:53.688Z,18.90
2019-04-20T09:48:31.308Z,18.90
2019-04-20T09:51:11.343Z,19.50
2019-04-20T09:53:36.002Z,19.70
2019-04-20T09:56:11.673Z,19.10
2019-04-20T09:58:52.991Z,18.80
2019-04-20T10:01:13.313Z,19.00
2019-04-20T10:03:31.257Z,19.40
2019-04-20T10:06:01.409Z,19.80
2019-04-20T10:08:34.919Z,19.40
2019-04-20T10:11:05.627Z,19.70
2019-04-20T10:13:36.337Z,19.60
2019-04-20T10:16:07.946Z,19.60
2019-04-20T10:18:42.507Z,18.90
2019-04-20T10:21:09.969Z,19.20
2019-04-20T10:23:40.695Z,19.60
2019-04-20T10:26:12.284Z,19.70
2019-04-20T10:28:43.633Z,19.40
2019-04-20T10:31:14.741Z,19.40
2019-04-20T10:33:45.924Z,19.40
2019-04-20T10:36:39.344Z,19.50
2019-04-20T10:39:11.045Z,19.60
2019-04-20T10:41:49.165Z,20.00
2019-04-20T10:44:14.593Z,20.00
2019-04-20T10:46:45.015Z,20.40
2019-04-20T10:49:15.465Z,20.50
2019-04-20T10:51:45.738Z,20.40
2019-04-20T10:54:16.400Z,20.20
2019-04-20T10:56:47.756Z,20.20
2019-04-20T10:59:19.332Z,20.30
2019-04-20T11:01:49.783Z,20.30
2019-04-20T11:04:20.907Z,20.20
2019-04-20T11:06:52.329Z,20.30
2019-04-20T11:09:22.751Z,20.60
2019-04-20T11:11:52.918Z,20.40
2019-04-20T11:14:29.759Z,20.50
2019-04-20T11:16:56.194Z,20.60
2019-04-20T11:19:27.415Z,20.60
2019-04-20T11:21:58.567Z,19.90
2019-04-20T11:24:30.171Z,20.10
2019-04-20T11:27:00.486Z,19.90
2019-04-20T11:29:31.901Z,19.80
2019-04-20T11:32:03.118Z,20.00
2019-04-20T11:34:38.411Z,20.20
2019-04-20T11:37:17.232Z,20.30
2019-04-20T11:39:47.492Z,20.20
2019-04-20T11:42:17.664Z,20.50
2019-04-20T11:44:48.841Z,20.80
2019-04-20T11:47:21.485Z,20.40
2019-04-20T11:49:51.860Z,20.20
2019-04-20T11:52:23.738Z,20.20
2019-04-20T11:54:54.663Z,20.60
2019-04-20T11:57:27.176Z,20.60
2019-04-20T11:59:59.378Z,20.90
2019-04-20T12:02:47.789Z,21.30
2019-04-20T12:05:27.804Z,21.30
2019-04-20T12:07:55.292Z,20.90
2019-04-20T12:10:27.981Z,20.50
2019-04-20T12:12:59.500Z,20.40
2019-04-20T12:15:34.519Z,20.50
2019-04-20T12:18:03.111Z,20.70
2019-04-20T12:20:34.545Z,21.20
2019-04-20T12:23:04.825Z,21.70
2019-04-20T12:25:36.750Z,21.40
2019-04-20T12:28:07.453Z,21.10
2019-04-20T12:30:37.837Z,20.90
2019-04-20T12:33:09.159Z,20.70
2019-04-20T12:35:40.325Z,20.70
2019-04-20T12:38:10.650Z,19.90
2019-04-20T12:40:42.013Z,20.30
2019-04-20T12:43:13.196Z,20.30
2019-04-20T12:45:44.138Z,19.50
2019-04-20T12:48:15.666Z,20.00
2019-04-20T12:50:45.946Z,20.00
2019-04-20T12:53:17.042Z,20.60
2019-04-20T12:55:48.446Z,20.90
2019-04-20T12:58:20.939Z,20.30
2019-04-20T13:00:52.591Z,20.40
2019-04-20T13:03:23.594Z,20.70
2019-04-20T13:05:54.332Z,21.10
2019-04-20T13:08:30.368Z,20.70
2019-04-20T13:11:11.048Z,20.50
2019-04-20T13:13:56.606Z,21.00
2019-04-20T13:16:34.417Z,21.20
2019-04-20T13:19:17.188Z,21.40
2019-04-20T13:21:47.398Z,21.20
2019-04-20T13:24:18.777Z,21.70
2019-04-20T13:26:49.185Z,21.20
2019-04-20T13:29:19.339Z,20.80
2019-04-20T13:31:52.071Z,21.00
2019-04-20T13:34:22.470Z,21.00
2019-04-20T13:36:52.771Z,20.80
2019-04-20T13:39:22.841Z,20.60
2019-04-20T13:42:03.419Z,20.50
2019-04-20T13:44:25.614Z,20.90
2019-04-20T13:46:56.714Z,20.20
2019-04-20T13:49:27.160Z,20.50
2019-04-20T13:51:57.277Z,20.50
2019-04-20T13:54:28.212Z,20.20
2019-04-20T13:57:00.626Z,20.40
2019-04-20T13:59:39.946Z,20.60
2019-04-20T14:02:17.159Z,20.30
2019-04-20T14:04:57.002Z,20.30
2019-04-20T14:07:27.622Z,19.70
2019-04-20T14:09:59.577Z,19.40
2019-04-20T14:12:35.084Z,20.10
2019-04-20T14:15:02.848Z,20.40
2019-04-20T14:17:33.257Z,20.00
2019-04-20T14:20:13.201Z,20.40
2019-04-20T14:22:42.989Z,20.30
2019-04-20T14:25:13.316Z,20.10
2019-04-20T14:27:44.760Z,20.20
2019-04-20T14:30:17.166Z,20.20
2019-04-20T14:32:50.417Z,20.10
2019-04-20T14:35:20.848Z,20.40
2019-04-20T14:37:52.089Z,20.00
2019-04-20T14:40:22.562Z,20.10
2019-04-20T14:42:54.817Z,19.80
2019-04-20T14:45:24.780Z,19.90
2019-04-20T14:48:07.845Z,19.80
2019-04-20T14:50:38.115Z,19.80
2019-04-20T14:53:09.511Z,19.90
2019-04-20T14:55:39.717Z,19.80
2019-04-20T14:58:29.132Z,19.40
2019-04-20T15:01:04.820Z,19.40
2019-04-20T15:03:40.989Z,19.60
2019-04-20T15:06:11.818Z,19.40
2019-04-20T15:08:42.897Z,19.50
2019-04-20T15:11:14.418Z,19.20
2019-04-20T15:13:44.862Z,19.10
2019-04-20T15:16:16.963Z,18.90
2019-04-20T15:18:52.986Z,19.10
2019-04-20T15:21:23.942Z,19.00
2019-04-20T15:23:55.340Z,18.70
2019-04-20T15:26:26.597Z,18.90
2019-04-20T15:28:57.042Z,18.90
2019-04-20T15:31:28.195Z,19.00
2019-04-20T15:33:59.090Z,19.30
2019-04-20T15:36:29.447Z,19.20
2019-04-20T15:39:01.022Z,19.00
2019-04-20T15:41:33.594Z,18.90
2019-04-20T15:44:03.909Z,18.90
2019-04-20T15:46:37.110Z,18.80
2019-04-20T15:49:08.347Z,18.60
2019-04-20T15:51:39.778Z,18.50
2019-04-20T15:54:11.412Z,18.50
2019-04-20T15:56:49.657Z,18.60
2019-04-20T15:59:14.659Z,18.60
2019-04-20T16:01:49.590Z,18.50
2019-04-20T16:04:41.192Z,18.40
2019-04-20T16:07:10.891Z,18.30
2019-04-20T16:09:42.150Z,18.30
2019-04-20T16:12:13.046Z,18.30
2019-04-20T16:14:43.852Z,18.10
2019-04-20T16:17:15.200Z,18.20
2019-04-20T16:19:54.509Z,18.30
2019-04-20T16:22:19.785Z,18.30
2019-04-20T16:24:56.089Z,18.10
2019-04-20T16:27:38.042Z,18.00
2019-04-20T16:30:09.805Z,17.80
2019-04-20T16:32:40.681Z,17.70
2019-04-20T16:35:12.246Z,17.60
2019-04-20T16:37:42.480Z,17.50
2019-04-20T16:40:13.942Z,17.50
2019-04-20T16:42:45.483Z,17.40
2019-04-20T16:45:17.239Z,17.40
2019-04-20T16:47:48.241Z,17.30
2019-04-20T16:50:19.326Z,17.20
2019-04-20T16:52:50.680Z,17.20
2019-04-20T16:55:20.967Z,17.00
2019-04-20T16:57:53.000Z,17.00
2019-04-20T17:00:23.416Z,16.90
2019-04-20T17:02:54.363Z,16.80
2019-04-20T17:05:25.572Z,16.90
2019-04-20T17:07:57.393Z,16.80
2019-04-20T17:10:28.861Z,16.70
2019-04-20T17:12:59.950Z,16.50
2019-04-20T17:15:30.206Z,16.40
2019-04-20T17:18:01.518Z,16.50
2019-04-20T17:20:32.963Z,16.40
2019-04-20T17:23:05.564Z,16.30
2019-04-20T17:25:35.866Z,16.20
2019-04-20T17:28:23.078Z,16.10
2019-04-20T17:31:15.659Z,16.00
2019-04-20T17:34:25.286Z,15.90
2019-04-20T17:36:40.464Z,15.80
2019-04-20T17:39:15.470Z,15.60
2019-04-20T17:42:03.015Z,15.50
2019-04-20T17:44:32.663Z,15.40
2019-04-20T17:47:00.599Z,15.30
2019-04-20T17:49:36.872Z,15.20
2019-04-20T17:52:22.615Z,15.10
2019-04-20T17:54:35.606Z,15.00
2019-04-20T17:57:09.015Z,14.90
2019-04-20T17:59:46.747Z,14.80
2019-04-20T18:02:53.466Z,14.80
2019-04-20T18:05:37.012Z,14.80
2019-04-20T18:08:10.223Z,14.70
2019-04-20T18:10:36.458Z,14.70
2019-04-20T18:12:56.537Z,14.60
2019-04-20T18:15:42.351Z,14.60
2019-04-20T18:18:32.075Z,14.40
2019-04-20T18:20:57.171Z,14.40
2019-04-20T18:23:34.431Z,14.30
2019-04-20T18:26:22.687Z,14.40
2019-04-20T18:28:58.064Z,14.50
2019-04-20T18:31:25.773Z,14.40
2019-04-20T18:34:06.992Z,14.40
2019-04-20T18:36:37.896Z,14.50
2019-04-20T18:39:10.262Z,14.50
2019-04-20T18:41:48.045Z,14.40
2019-04-20T18:44:12.928Z,14.30
2019-04-20T18:47:07.039Z,14.20
2019-04-20T18:49:27.170Z,14.20
2019-04-20T18:51:48.025Z,14.20
2019-04-20T18:54:23.494Z,14.10
2019-04-20T18:56:52.572Z,14.10
2019-04-20T18:59:24.393Z,14.00
2019-04-20T19:01:55.009Z,14.00
2019-04-20T19:04:25.919Z,14.00
2019-04-20T19:06:57.355Z,14.00
2019-04-20T19:09:30.429Z,13.90
2019-04-20T19:12:03.966Z,13.80
2019-04-20T19:14:51.720Z,13.80
2019-04-20T19:17:53.515Z,13.70
2019-04-20T19:20:23.367Z,13.60
2019-04-20T19:22:53.546Z,13.50
2019-04-20T19:25:30.524Z,13.40
2019-04-20T19:27:57.753Z,13.20
2019-04-20T19:30:35.481Z,13.10
2019-04-20T19:33:14.965Z,13.20
2019-04-20T19:35:41.713Z,13.00
2019-04-20T19:38:10.376Z,13.00
2019-04-20T19:40:47.778Z,12.90
2019-04-20T19:43:17.133Z,12.80
2019-04-20T19:46:07.171Z,12.70
2019-04-20T19:48:25.443Z,12.60
2019-04-20T19:51:05.815Z,12.60
2019-04-20T19:53:36.427Z,12.50
2019-04-20T19:55:59.055Z,12.40
2019-04-20T19:58:33.118Z,12.40
2019-04-20T20:00:54.210Z,12.30
2019-04-20T20:03:23.966Z,12.30
2019-04-20T20:05:56.477Z,12.30
2019-04-20T20:08:29.944Z,12.30
2019-04-20T20:11:01.336Z,12.30
2019-04-20T20:13:34.567Z,12.30
2019-04-20T20:16:10.540Z,12.20
2019-04-20T20:18:50.931Z,12.10
2019-04-20T20:21:22.596Z,12.10
2019-04-20T20:23:41.809Z,12.00
2019-04-20T20:26:20.703Z,12.00
2019-04-20T20:28:50.739Z,12.00
2019-04-20T20:31:23.372Z,12.20
2019-04-20T20:33:59.000Z,12.30
2019-04-20T20:36:23.280Z,12.20
2019-04-20T20:38:53.844Z,12.20
2019-04-20T20:41:28.960Z,12.10
2019-04-20T20:44:03.655Z,12.10
2019-04-20T20:46:34.872Z,12.00
2019-04-20T20:49:16.159Z,12.00
2019-04-20T20:52:02.472Z,11.90
2019-04-20T20:54:15.496Z,11.90
2019-04-20T20:56:46.688Z,11.80
2019-04-20T20:59:14.094Z,11.80
2019-04-20T21:01:50.388Z,11.80
2019-04-20T21:04:12.754Z,11.80
2019-04-20T21:06:42.857Z,11.80
2019-04-20T21:09:14.329Z,11.70
2019-04-20T21:11:46.382Z,11.70
2019-04-20T21:14:24.320Z,11.70
2019-04-20T21:16:58.592Z,11.60
2019-04-20T21:19:34.290Z,11.60
2019-04-20T21:22:00.004Z,11.50
2019-04-20T21:24:28.788Z,11.50
2019-04-20T21:27:06.737Z,11.50
2019-04-20T21:29:37.836Z,11.50
2019-04-20T21:32:08.663Z,11.50
2019-04-20T21:34:35.543Z,11.50
2019-04-20T21:37:11.844Z,11.50
2019-04-20T21:39:44.692Z,11.50
2019-04-20T21:42:15.914Z,11.60
2019-04-20T21:44:45.347Z,11.70
2019-04-20T21:47:21.843Z,11.70
2019-04-20T21:50:03.120Z,11.70
2019-04-20T21:52:29.908Z,11.70
2019-04-20T21:54:54.461Z,11.70
2019-04-20T21:57:26.009Z,11.70
2019-04-20T22:00:02.599Z,11.70
2019-04-20T22:02:32.735Z,11.60
2019-04-20T22:05:01.200Z,11.50
2019-04-20T22:07:32.889Z,11.60
2019-04-20T22:10:03.006Z,11.50
2019-04-20T22:12:39.687Z,11.40
2019-04-20T22:15:17.028Z,11.20
2019-04-20T22:17:40.798Z,11.20
2019-04-20T22:20:20.041Z,11.30
2019-04-20T22:23:01.127Z,11.20
2019-04-20T22:25:33.220Z,11.30
2019-04-20T22:27:48.295Z,11.30
2019-04-20T22:30:19.935Z,11.30
2019-04-20T22:32:53.234Z,11.20
2019-04-20T22:35:24.393Z,11.10
2019-04-20T22:38:07.011Z,11.00
2019-04-20T22:40:36.401Z,10.90
2019-04-20T22:43:06.485Z,10.90
2019-04-20T22:45:42.195Z,10.80
2019-04-20T22:48:12.431Z,10.80
2019-04-20T22:51:03.598Z,10.70
2019-04-20T22:53:29.864Z,10.70
2019-04-20T22:56:11.082Z,10.70
2019-04-20T22:58:28.710Z,10.80
2019-04-20T23:00:54.351Z,10.70
2019-04-20T23:03:20.932Z,10.70
2019-04-20T23:05:51.065Z,10.70
2019-04-20T23:08:22.423Z,10.60
2019-04-20T23:10:53.546Z,10.50
2019-04-20T23:13:29.445Z,10.40
2019-04-20T23:16:00.153Z,10.40
2019-04-20T23:18:28.456Z,10.40
2019-04-20T23:21:01.320Z,10.30
2019-04-20T23:23:31.007Z,10.40
2019-04-20T23:26:03.089Z,10.40
2019-04-20T23:28:33.421Z,10.40
2019-04-20T23:31:07.325Z,10.30
2019-04-20T23:33:36.087Z,10.30
2019-04-20T23:36:07.843Z,10.30
2019-04-20T23:38:38.979Z,10.20
2019-04-20T23:41:10.057Z,10.10
2019-04-20T23:43:45.287Z,10.00
2019-04-20T23:46:47.414Z,10.00
2019-04-20T23:49:32.701Z,9.90
2019-04-20T23:52:26.097Z,9.80
2019-04-20T23:54:33.654Z,9.70
2019-04-20T23:57:02.037Z,9.60
2019-04-20T23:59:39.245Z,9.50
